Time;durP1;ratioP1;P1;durP2;ratioP2;P2;SDS_P1;SDS_P2;PMS_P1;PMS_P2;Temp;Humidity;BMP_temperature;BMP_pressure;BME280_temperature;BME280_humidity;BME280_pressure;Samples;Min_cycle;Max_cycle;Signal;HPM_P1;HPM_P2
2021/08/27 00:00:34;;;;;;;20.02;14.48;;;461.30;2380.80;;;;;;5055382;28;20096;-77
2021/08/27 00:03:00;;;;;;;22.90;16.85;;;461.20;2380.80;;;;;;5071945;28;20136;-77
2021/08/27 00:05:26;;;;;;;22.27;14.98;;;461.30;2380.80;;;;;;5085045;28;20032;-78
2021/08/27 00:07:51;;;;;;;20.00;15.48;;;461.30;2380.80;;;;;;5055447;28;20141;-77
2021/08/27 00:10:18;;;;;;;19.02;15.45;;;461.40;2380.80;;;;;;5076549;28;20036;-79
2021/08/27 00:12:44;;;;;;;18.67;14.55;;;461.40;2380.80;;;;;;5085695;28;20029;-78
2021/08/27 00:15:10;;;;;;;20.13;15.65;;;461.30;2380.80;;;;;;5067514;28;20159;-79
2021/08/27 00:17:37;;;;;;;17.10;14.23;;;461.30;2380.80;;;;;;5056435;28;20024;-78
2021/08/27 00:20:04;;;;;;;18.85;15.05;;;461.20;2380.80;;;;;;5067491;28;20028;-77
2021/08/27 00:22:30;;;;;;;18.35;14.55;;;461.30;2380.80;;;;;;5066723;28;20025;-77
2021/08/27 00:24:56;;;;;;;20.48;14.55;;;461.30;2380.80;;;;;;5069767;28;20074;-76
2021/08/27 00:27:22;;;;;;;16.60;14.27;;;461.30;2380.80;;;;;;5065433;28;20033;-76
2021/08/27 00:29:47;;;;;;;16.80;14.38;;;461.30;2380.80;;;;;;5068625;28;20501;-77
2021/08/27 00:32:13;;;;;;;15.55;13.55;;;461.40;2380.80;;;;;;5069676;28;20536;-78
2021/08/27 00:34:39;;;;;;;16.83;14.95;;;461.50;2380.80;;;;;;5061286;28;20071;-77
2021/08/27 00:37:05;;;;;;;14.77;12.88;;;461.40;2380.80;;;;;;5066958;28;20021;-76
2021/08/27 00:39:31;;;;;;;20.17;14.82;;;461.50;2380.80;;;;;;5068812;28;20016;-75
2021/08/27 00:41:58;;;;;;;20.55;15.25;;;461.50;2380.80;;;;;;5069838;28;20021;-76
2021/08/27 00:44:24;;;;;;;18.58;13.07;;;461.60;2380.80;;;;;;5069579;28;20115;-76
2021/08/27 00:46:50;;;;;;;19.17;14.18;;;461.70;2380.80;;;;;;5070214;28;20023;-76
2021/08/27 00:49:16;;;;;;;16.98;14.05;;;461.70;2380.80;;;;;;5069085;28;20385;-75
2021/08/27 00:51:42;;;;;;;16.27;13.90;;;461.70;2380.80;;;;;;5050561;28;20108;-75
2021/08/27 00:54:08;;;;;;;18.90;14.80;;;461.70;2380.80;;;;;;5066599;28;20017;-75
2021/08/27 00:56:34;;;;;;;16.23;13.60;;;461.70;2380.80;;;;;;5054256;28;20036;-75
2021/08/27 00:59:00;;;;;;;16.80;13.55;;;461.70;2380.80;;;;;;5076865;28;20024;-75
2021/08/27 01:01:26;;;;;;;19.50;13.73;;;461.70;2380.80;;;;;;5088644;28;20080;-75
2021/08/27 01:03:58;;;;;;;20.40;15.05;;;461.60;2380.80;;;;;;5071939;28;20021;-76
2021/08/27 01:06:42;;;;;;;19.73;14.52;;;461.50;2380.80;;;;;;5064578;28;20111;-76
2021/08/27 01:09:26;;;;;;;19.02;15.10;;;461.50;2380.80;;;;;;5070035;28;20017;-76
2021/08/27 01:12:15;;;;;;;19.25;14.55;;;461.40;2380.80;;;;;;5068640;28;20482;-75
2021/08/27 01:14:47;;;;;;;17.80;14.32;;;461.40;2380.80;;;;;;5085656;28;20452;-75
2021/08/27 01:17:19;;;;;;;18.63;13.93;;;461.40;2380.80;;;;;;5052624;28;20024;-77
2021/08/27 01:20:01;;;;;;;18.20;14.57;;;461.40;2380.80;;;;;;5069370;28;20009;-76
2021/08/27 01:22:42;;;;;;;19.83;16.50;;;461.30;2380.80;;;;;;5065229;28;20017;-74
2021/08/27 01:25:10;;;;;;;21.58;17.42;;;461.30;2380.80;;;;;;5072847;28;20034;-74
2021/08/27 01:27:37;;;;;;;19.63;15.57;;;461.20;2380.80;;;;;;5069148;28;20020;-77
2021/08/27 01:30:05;;;;;;;21.08;15.23;;;461.10;2380.80;;;;;;5066572;28;20104;-75
2021/08/27 01:32:59;;;;;;;24.30;17.60;;;461.00;2380.80;;;;;;5065942;28;20024;-76
2021/08/27 01:35:29;;;;;;;24.27;18.15;;;461.00;2380.80;;;;;;5068082;28;20090;-77
2021/08/27 01:37:56;;;;;;;27.80;18.50;;;461.00;2380.80;;;;;;5069368;28;20032;-75
2021/08/27 01:40:25;;;;;;;26.08;19.60;;;436.10;2355.20;;;;;;5066981;28;20390;-78
2021/08/27 01:42:52;;;;;;;31.42;21.48;;;435.70;2355.20;;;;;;5068363;28;20055;-75
2021/08/27 01:45:19;;;;;;;29.58;19.98;;;435.70;2355.20;;;;;;5069481;28;20024;-74
2021/08/27 01:47:46;;;;;;;32.72;21.63;;;435.60;2355.20;;;;;;5068286;28;20051;-76
2021/08/27 01:50:13;;;;;;;28.65;21.20;;;435.50;2355.20;;;;;;5068685;28;20031;-76
2021/08/27 01:52:41;;;;;;;33.03;21.85;;;435.40;2355.20;;;;;;5054847;28;20024;-75
2021/08/27 01:55:08;;;;;;;30.30;21.75;;;435.40;2355.20;;;;;;5066173;28;20052;-76
2021/08/27 01:57:35;;;;;;;30.95;22.02;;;435.50;2355.20;;;;;;5063133;28;20024;-74
2021/08/27 02:00:03;;;;;;;34.30;21.75;;;435.60;2355.20;;;;;;5068646;28;20052;-77
2021/08/27 02:02:30;;;;;;;29.98;21.48;;;435.80;2355.20;;;;;;5068985;28;20020;-78
2021/08/27 02:05:00;;;;;;;35.75;23.95;;;435.70;2355.20;;;;;;5059552;28;20025;-76
2021/08/27 02:07:26;;;;;;;29.75;22.33;;;435.60;2355.20;;;;;;5067721;28;20154;-77
2021/08/27 02:09:56;;;;;;;35.00;22.60;;;435.80;2355.20;;;;;;5067957;28;20431;-75
2021/08/27 02:12:23;;;;;;;32.45;22.95;;;436.00;2355.20;;;;;;5054415;28;20399;-75
2021/08/27 02:14:52;;;;;;;28.02;20.70;;;436.10;2355.20;;;;;;5068617;28;20024;-75
2021/08/27 02:17:18;;;;;;;32.47;22.15;;;435.90;2355.20;;;;;;5066822;28;20079;-75
2021/08/27 02:19:44;;;;;;;29.85;22.15;;;436.10;2355.20;;;;;;5068790;28;20016;-75
2021/08/27 02:22:16;;;;;;;29.27;20.90;;;460.90;2380.80;;;;;;5050510;28;20028;-77
2021/08/27 02:24:57;;;;;;;28.83;22.10;;;461.10;2380.80;;;;;;5068949;28;20017;-77
2021/08/27 02:27:23;;;;;;;34.55;22.33;;;461.10;2380.80;;;;;;5067257;28;20056;-76
2021/08/27 02:29:53;;;;;;;34.05;24.70;;;461.00;2380.80;;;;;;5068659;28;20045;-77
2021/08/27 02:32:20;;;;;;;30.65;23.08;;;460.90;2380.80;;;;;;5068741;28;20029;-75
2021/08/27 02:34:48;;;;;;;31.30;24.20;;;460.80;2380.80;;;;;;5068867;28;20105;-74
2021/08/27 02:37:16;;;;;;;29.65;22.85;;;461.00;2380.80;;;;;;5065891;28;20079;-77
2021/08/27 02:39:42;;;;;;;32.28;22.95;;;461.10;2380.80;;;;;;5068360;28;20021;-74
2021/08/27 02:42:09;;;;;;;32.30;23.48;;;461.10;2380.80;;;;;;5066735;28;20034;-77
2021/08/27 02:44:35;;;;;;;30.83;23.67;;;461.10;2380.80;;;;;;5048079;28;20016;-77
2021/08/27 02:47:01;;;;;;;29.70;20.92;;;461.10;2380.80;;;;;;5054258;28;20439;-76
2021/08/27 02:49:27;;;;;;;25.00;18.70;;;461.20;2380.80;;;;;;5069157;28;20044;-75
2021/08/27 02:52:01;;;;;;;28.35;21.35;;;461.20;2380.80;;;;;;5072166;28;20490;-76
2021/08/27 02:54:32;;;;;;;26.85;19.25;;;461.10;2380.80;;;;;;5071196;28;20395;-76
2021/08/27 02:57:03;;;;;;;26.42;19.52;;;461.20;2380.80;;;;;;5064107;28;20021;-75
2021/08/27 02:59:30;;;;;;;27.95;20.15;;;461.10;2380.80;;;;;;5071332;28;20029;-75
2021/08/27 03:01:58;;;;;;;22.98;17.38;;;461.20;2380.80;;;;;;5071991;28;20016;-75
2021/08/27 03:04:33;;;;;;;27.92;18.98;;;461.20;2380.80;;;;;;5063732;28;20110;-75
2021/08/27 03:07:06;;;;;;;24.50;19.25;;;461.00;2380.80;;;;;;5073057;28;20106;-75
2021/08/27 03:09:54;;;;;;;28.27;18.73;;;460.80;2380.80;;;;;;5085064;28;20022;-75
2021/08/27 03:12:42;;;;;;;23.42;19.17;;;435.60;2355.20;;;;;;5077513;28;20025;-75
2021/08/27 03:15:10;;;;;;;25.63;18.00;;;435.90;2355.20;;;;;;5074078;28;20024;-77
2021/08/27 03:17:41;;;;;;;25.30;17.92;;;460.80;2380.80;;;;;;5075106;28;20021;-76
2021/08/27 03:20:19;;;;;;;24.20;18.33;;;460.80;2380.80;;;;;;5075278;28;20038;-77
2021/08/27 03:22:51;;;;;;;22.23;18.15;;;460.90;2380.80;;;;;;5073616;28;20103;-76
2021/08/27 03:25:17;;;;;;;21.55;17.33;;;460.80;2380.80;;;;;;5065405;28;20421;-74
2021/08/27 03:27:47;;;;;;;24.50;17.75;;;460.80;2380.80;;;;;;5082347;28;20095;-77
2021/08/27 03:30:20;;;;;;;22.40;17.65;;;461.00;2380.80;;;;;;5082111;28;20036;-77
2021/08/27 03:32:50;;;;;;;23.17;18.48;;;461.00;2380.80;;;;;;5075034;28;20048;-77
2021/08/27 03:35:18;;;;;;;22.35;17.65;;;460.80;2380.80;;;;;;5074487;28;20028;-77
2021/08/27 03:37:46;;;;;;;21.75;17.92;;;460.90;2380.80;;;;;;5075024;28;20077;-78
2021/08/27 03:40:13;;;;;;;22.40;18.20;;;461.10;2380.80;;;;;;5073734;28;20029;-78
2021/08/27 03:42:41;;;;;;;22.52;16.83;;;461.10;2380.80;;;;;;5073665;28;20508;-78
2021/08/27 03:45:09;;;;;;;25.70;17.48;;;461.10;2380.80;;;;;;5074497;28;20024;-78
2021/08/27 03:47:36;;;;;;;26.27;17.50;;;461.10;2380.80;;;;;;5074470;28;20024;-76
2021/08/27 03:50:03;;;;;;;23.15;17.10;;;461.10;2380.80;;;;;;5074377;28;20096;-78
2021/08/27 03:52:29;;;;;;;23.65;17.95;;;461.10;2380.80;;;;;;5074224;28;20024;-76
2021/08/27 03:54:56;;;;;;;24.20;18.55;;;461.20;2380.80;;;;;;5069661;28;20390;-75
2021/08/27 03:57:24;;;;;;;24.98;19.10;;;461.20;2380.80;;;;;;5081331;28;20024;-78
2021/08/27 03:59:50;;;;;;;28.33;19.15;;;461.10;2380.80;;;;;;5077161;28;20020;-76
2021/08/27 04:02:16;;;;;;;23.65;18.13;;;461.20;2380.80;;;;;;5072590;28;20467;-77
2021/08/27 04:04:42;;;;;;;25.27;19.42;;;461.10;2380.80;;;;;;5074108;28;20036;-78
2021/08/27 04:07:07;;;;;;;24.90;18.63;;;461.00;2380.80;;;;;;5074166;28;20027;-77
2021/08/27 04:09:36;;;;;;;23.58;17.58;;;461.10;2380.80;;;;;;5074229;28;20531;-77
2021/08/27 04:12:04;;;;;;;26.70;19.27;;;461.10;2380.80;;;;;;5078164;28;20028;-78
2021/08/27 04:14:30;;;;;;;25.50;19.33;;;461.10;2380.80;;;;;;5092013;28;20476;-75
2021/08/27 04:16:58;;;;;;;25.35;19.20;;;461.10;2380.80;;;;;;5079436;28;20096;-78
2021/08/27 04:19:25;;;;;;;25.70;19.77;;;461.30;2380.80;;;;;;5073843;28;20013;-76
2021/08/27 04:21:50;;;;;;;25.60;18.80;;;461.10;2380.80;;;;;;5072945;28;20082;-76
2021/08/27 04:24:17;;;;;;;24.42;19.70;;;461.10;2380.80;;;;;;5073696;28;20928;-76
2021/08/27 04:26:42;;;;;;;28.25;21.15;;;460.90;2380.80;;;;;;5072737;28;20070;-75
2021/08/27 04:29:11;;;;;;;28.02;21.80;;;460.80;2380.80;;;;;;5073614;28;20016;-76
2021/08/27 04:31:38;;;;;;;32.38;22.90;;;436.10;2355.20;;;;;;5072637;28;20040;-76
2021/08/27 04:34:03;;;;;;;28.70;20.38;;;460.90;2380.80;;;;;;5073404;28;20021;-75
2021/08/27 04:36:29;;;;;;;34.72;23.10;;;460.80;2380.80;;;;;;5091914;28;20101;-76
2021/08/27 04:38:55;;;;;;;32.58;22.95;;;460.80;2380.80;;;;;;5087604;28;20029;-76
2021/08/27 04:41:21;;;;;;;35.13;22.88;;;460.80;2380.80;;;;;;5072071;28;20024;-76
2021/08/27 04:43:50;;;;;;;29.33;21.80;;;460.80;2380.80;;;;;;5073362;28;20527;-76
2021/08/27 04:46:16;;;;;;;31.40;22.13;;;436.10;2355.20;;;;;;5073148;28;20076;-76
2021/08/27 04:48:42;;;;;;;41.38;24.13;;;435.90;2355.20;;;;;;5072948;28;20020;-76
2021/08/27 04:51:08;;;;;;;33.22;22.80;;;435.80;2355.20;;;;;;5073208;28;20085;-75
2021/08/27 04:53:33;;;;;;;32.83;23.38;;;435.60;2355.20;;;;;;5073390;28;20017;-76
2021/08/27 04:55:59;;;;;;;33.22;23.52;;;435.40;2355.20;;;;;;5056875;28;20048;-75
2021/08/27 04:58:26;;;;;;;33.33;24.65;;;435.20;2355.20;;;;;;5053541;28;20021;-76
2021/08/27 05:00:55;;;;;;;35.58;23.58;;;435.20;2355.20;;;;;;5053222;28;20013;-76
2021/08/27 05:03:20;;;;;;;33.28;23.63;;;435.20;2355.20;;;;;;5050665;28;20029;-75
2021/08/27 05:05:47;;;;;;;38.53;23.70;;;410.50;2355.20;;;;;;5053240;28;20374;-76
2021/08/27 05:08:12;;;;;;;34.08;23.17;;;435.30;2355.20;;;;;;5037529;28;20500;-76
2021/08/27 05:10:38;;;;;;;39.97;24.75;;;435.30;2355.20;;;;;;5059252;28;20025;-75
2021/08/27 05:13:04;;;;;;;31.75;22.20;;;435.30;2355.20;;;;;;5052778;28;20060;-75
2021/08/27 05:15:30;;;;;;;37.08;24.30;;;435.30;2355.20;;;;;;5052618;28;20052;-75
2021/08/27 05:17:55;;;;;;;35.17;24.45;;;435.30;2355.20;;;;;;5053018;28;20651;-75
2021/08/27 05:20:21;;;;;;;35.00;25.55;;;435.20;2355.20;;;;;;5053031;28;20556;-75
2021/08/27 05:22:47;;;;;;;41.53;24.30;;;435.30;2355.20;;;;;;5053202;28;20040;-75
2021/08/27 05:25:12;;;;;;;36.08;24.58;;;435.30;2355.20;;;;;;5053166;28;20025;-79
2021/08/27 05:27:39;;;;;;;39.92;25.98;;;435.30;2355.20;;;;;;5053191;28;20055;-77
2021/08/27 05:30:07;;;;;;;32.90;24.35;;;435.30;2355.20;;;;;;5035223;28;20516;-76
2021/08/27 05:32:33;;;;;;;34.78;24.90;;;410.50;2355.20;;;;;;5052941;28;20516;-75
2021/08/27 05:34:59;;;;;;;37.85;26.05;;;435.20;2355.20;;;;;;5052855;28;20033;-76
2021/08/27 05:37:25;;;;;;;34.00;25.95;;;435.20;2355.20;;;;;;5034699;28;20021;-78
2021/08/27 05:39:51;;;;;;;45.05;25.75;;;435.20;2355.20;;;;;;5034863;28;20139;-75
2021/08/27 05:42:17;;;;;;;36.97;25.50;;;410.50;2355.20;;;;;;5052251;28;20032;-76
2021/08/27 05:44:43;;;;;;;39.08;26.38;;;435.20;2355.20;;;;;;5033806;28;20048;-75
2021/08/27 05:47:10;;;;;;;40.30;26.83;;;435.20;2355.20;;;;;;5048561;28;20493;-77
2021/08/27 05:49:35;;;;;;;40.03;25.45;;;435.20;2355.20;;;;;;5052646;28;20493;-75
2021/08/27 05:52:02;;;;;;;38.58;26.90;;;435.20;2355.20;;;;;;5031593;28;20037;-75
2021/08/27 05:54:28;;;;;;;40.00;26.70;;;410.50;2355.20;;;;;;5058841;28;20132;-76
2021/08/27 05:56:55;;;;;;;37.60;26.75;;;410.50;2355.20;;;;;;5072573;28;20056;-74
2021/08/27 05:59:21;;;;;;;37.13;26.25;;;435.20;2355.20;;;;;;5074688;28;20541;-78
2021/08/27 06:01:47;;;;;;;37.53;24.65;;;435.30;2355.20;;;;;;5092438;28;20113;-75
2021/08/27 06:04:13;;;;;;;27.10;21.55;;;435.30;2355.20;;;;;;5092604;28;20063;-75
2021/08/27 06:06:40;;;;;;;32.10;21.00;;;435.60;2355.20;;;;;;5093053;28;20472;-74
2021/08/27 06:09:07;;;;;;;32.13;21.58;;;435.50;2355.20;;;;;;5092679;28;20056;-76
2021/08/27 06:11:36;;;;;;;27.58;19.83;;;435.50;2355.20;;;;;;5092440;28;20028;-75
2021/08/27 06:14:06;;;;;;;23.67;17.60;;;435.30;2355.20;;;;;;5092446;28;20042;-74
2021/08/27 06:16:33;;;;;;;20.02;14.18;;;435.30;2355.20;;;;;;5089438;28;20024;-75
2021/08/27 06:19:00;;;;;;;19.33;13.88;;;435.30;2355.20;;;;;;5105587;28;20020;-74
2021/08/27 06:21:26;;;;;;;17.27;12.23;;;435.30;2355.20;;;;;;5094100;28;20480;-76
2021/08/27 06:23:54;;;;;;;14.52;10.80;;;435.40;2355.20;;;;;;5092314;28;20035;-75
2021/08/27 06:26:20;;;;;;;17.83;11.02;;;435.40;2355.20;;;;;;5102663;28;20028;-73
2021/08/27 06:28:46;;;;;;;16.10;9.40;;;435.30;2355.20;;;;;;5085702;28;20065;-73
2021/08/27 06:31:12;;;;;;;16.45;8.77;;;435.30;2355.20;;;;;;5097854;28;20412;-77
2021/08/27 06:33:38;;;;;;;15.95;8.35;;;435.20;2355.20;;;;;;5096194;28;20020;-74
2021/08/27 06:36:04;;;;;;;11.10;8.05;;;410.50;2355.20;;;;;;5096543;28;20028;-73
2021/08/27 06:38:30;;;;;;;17.23;9.48;;;410.50;2355.20;;;;;;5101954;28;20019;-75
2021/08/27 06:41:02;;;;;;;16.42;10.00;;;410.20;2355.20;;;;;;5099338;28;20380;-75
2021/08/27 06:43:30;;;;;;;19.58;9.95;;;410.10;2355.20;;;;;;5101768;28;20015;-74
2021/08/27 06:45:58;;;;;;;19.67;9.27;;;410.00;2355.20;;;;;;5096301;28;20031;-76
2021/08/27 06:48:24;;;;;;;17.10;8.70;;;410.10;2355.20;;;;;;5101522;28;20016;-75
2021/08/27 06:50:50;;;;;;;13.63;9.18;;;410.00;2355.20;;;;;;5104116;28;20039;-75
2021/08/27 06:53:16;;;;;;;15.75;10.25;;;410.10;2355.20;;;;;;5099479;28;20031;-76
2021/08/27 06:55:42;;;;;;;17.20;11.13;;;410.20;2355.20;;;;;;5098192;28;20392;-75
2021/08/27 06:58:08;;;;;;;21.38;13.63;;;410.00;2355.20;;;;;;5116512;28;20016;-77
2021/08/27 07:00:34;;;;;;;22.92;14.38;;;409.90;2355.20;;;;;;5116602;28;20064;-75
2021/08/27 07:03:00;;;;;;;16.27;9.20;;;409.90;2355.20;;;;;;5112234;28;20039;-76
2021/08/27 07:05:27;;;;;;;13.32;8.05;;;410.10;2355.20;;;;;;5106298;28;20028;-76
2021/08/27 07:07:53;;;;;;;15.65;8.43;;;410.20;2355.20;;;;;;5116419;28;20027;-77
2021/08/27 07:10:19;;;;;;;19.20;8.32;;;410.20;2355.20;;;;;;5116404;28;20011;-74
2021/08/27 07:12:47;;;;;;;10.75;7.45;;;410.20;2355.20;;;;;;5116098;28;20031;-75
2021/08/27 07:15:13;;;;;;;15.00;8.68;;;410.30;2355.20;;;;;;5102440;28;20016;-77
2021/08/27 07:17:40;;;;;;;14.48;8.55;;;410.30;2355.20;;;;;;5116284;28;20035;-77
2021/08/27 07:20:07;;;;;;;18.15;8.73;;;410.30;2355.20;;;;;;5097179;28;20521;-75
2021/08/27 07:22:34;;;;;;;14.52;9.40;;;410.30;2355.20;;;;;;5088696;28;20035;-78
2021/08/27 07:25:00;;;;;;;11.90;7.90;;;410.40;2355.20;;;;;;5116264;28;20020;-74
2021/08/27 07:27:25;;;;;;;14.85;9.48;;;410.50;2355.20;;;;;;5116059;28;20016;-74
2021/08/27 07:29:51;;;;;;;15.13;9.15;;;410.50;2355.20;;;;;;5115905;28;20035;-73
2021/08/27 07:32:17;;;;;;;14.70;8.80;;;410.50;2355.20;;;;;;5115858;28;20136;-75
2021/08/27 07:34:43;;;;;;;13.35;8.30;;;435.20;2355.20;;;;;;5115844;28;20085;-75
2021/08/27 07:37:10;;;;;;;18.42;8.68;;;435.30;2355.20;;;;;;5114695;28;20028;-74
2021/08/27 07:39:36;;;;;;;21.02;10.30;;;435.30;2355.20;;;;;;5115906;28;20064;-75
2021/08/27 07:42:04;;;;;;;15.98;8.88;;;435.30;2355.20;;;;;;5112475;28;20456;-74
2021/08/27 07:44:29;;;;;;;16.23;9.55;;;435.20;2355.20;;;;;;5105011;28;20107;-76
2021/08/27 07:46:55;;;;;;;17.33;9.65;;;435.30;2355.20;;;;;;5099824;28;20048;-75
2021/08/27 07:49:21;;;;;;;14.88;9.65;;;435.40;2355.20;;;;;;5102866;28;20028;-74
2021/08/27 07:51:48;;;;;;;17.77;10.00;;;435.40;2355.20;;;;;;5115620;28;20040;-74
2021/08/27 07:54:14;;;;;;;14.80;8.45;;;435.40;2355.20;;;;;;5113413;28;20111;-74
2021/08/27 07:56:40;;;;;;;15.02;9.07;;;435.50;2355.20;;;;;;5102941;28;20031;-76
2021/08/27 07:59:06;;;;;;;15.45;8.98;;;435.50;2355.20;;;;;;5115624;28;20027;-77
2021/08/27 08:01:32;;;;;;;19.63;7.72;;;435.50;2355.20;;;;;;5115270;28;20460;-76
2021/08/27 08:03:58;;;;;;;15.32;6.93;;;435.60;2355.20;;;;;;5083820;28;20028;-79
2021/08/27 08:06:23;;;;;;;15.95;7.40;;;435.60;2355.20;;;;;;5094649;28;20077;-76
2021/08/27 08:08:52;;;;;;;13.02;7.65;;;435.60;2355.20;;;;;;5094305;28;20026;-76
2021/08/27 08:11:18;;;;;;;13.68;7.68;;;435.60;2355.20;;;;;;5094425;28;20039;-77
2021/08/27 08:13:44;;;;;;;14.60;8.20;;;435.60;2355.20;;;;;;5094446;28;20012;-77
2021/08/27 08:16:11;;;;;;;11.35;6.97;;;435.60;2355.20;;;;;;5094474;28;20049;-77
2021/08/27 08:18:37;;;;;;;13.55;7.55;;;435.60;2355.20;;;;;;5076334;28;20058;-75
2021/08/27 08:21:04;;;;;;;17.42;8.48;;;435.60;2355.20;;;;;;5094303;28;20492;-77
2021/08/27 08:23:29;;;;;;;13.85;7.00;;;435.70;2355.20;;;;;;5076289;28;20392;-75
2021/08/27 08:25:56;;;;;;;12.30;7.13;;;435.70;2355.20;;;;;;5094354;28;20020;-75
2021/08/27 08:28:22;;;;;;;11.10;7.03;;;435.60;2355.20;;;;;;5076124;28;20099;-76
2021/08/27 08:30:49;;;;;;;13.63;8.40;;;435.50;2355.20;;;;;;5076099;28;20028;-76
2021/08/27 08:33:15;;;;;;;11.75;7.55;;;435.60;2355.20;;;;;;5078173;28;20088;-76
2021/08/27 08:35:41;;;;;;;14.52;8.27;;;435.50;2355.20;;;;;;5096517;28;20532;-76
2021/08/27 08:38:06;;;;;;;13.80;7.75;;;435.50;2355.20;;;;;;5095444;28;20028;-77
2021/08/27 08:40:38;;;;;;;12.13;7.45;;;435.40;2355.20;;;;;;5094736;28;20023;-77
2021/08/27 08:43:04;;;;;;;14.05;7.57;;;435.50;2355.20;;;;;;5102930;28;20020;-76
2021/08/27 08:45:31;;;;;;;12.98;8.85;;;435.50;2355.20;;;;;;5089632;28;20111;-76
2021/08/27 08:47:58;;;;;;;14.82;7.97;;;435.30;2355.20;;;;;;5085842;28;20047;-76
2021/08/27 08:50:24;;;;;;;15.07;8.25;;;435.40;2355.20;;;;;;5104751;28;20022;-77
2021/08/27 08:52:50;;;;;;;15.82;8.95;;;435.40;2355.20;;;;;;5109949;28;20102;-76
2021/08/27 08:55:16;;;;;;;17.92;8.27;;;435.40;2355.20;;;;;;5100119;28;20086;-76
2021/08/27 08:57:42;;;;;;;14.27;7.47;;;435.30;2355.20;;;;;;5103535;28;20024;-76
2021/08/27 09:00:09;;;;;;;13.55;8.05;;;435.50;2355.20;;;;;;5107627;28;20020;-76
2021/08/27 09:02:34;;;;;;;14.45;8.18;;;435.60;2355.20;;;;;;5109222;28;20020;-78
2021/08/27 09:05:00;;;;;;;12.30;8.27;;;435.50;2355.20;;;;;;5097406;28;20043;-76
2021/08/27 09:07:27;;;;;;;13.48;8.30;;;435.50;2355.20;;;;;;5083426;28;20044;-77
2021/08/27 09:09:53;;;;;;;14.75;8.57;;;435.60;2355.20;;;;;;5096264;28;21357;-76
2021/08/27 09:12:22;;;;;;;12.30;8.20;;;435.60;2355.20;;;;;;5103208;28;20473;-76
2021/08/27 09:14:58;;;;;;;15.02;9.02;;;435.60;2355.20;;;;;;5100850;28;20366;-76
2021/08/27 09:17:39;;;;;;;14.85;8.90;;;435.70;2355.20;;;;;;5078419;28;20032;-76
2021/08/27 09:20:11;;;;;;;13.25;9.07;;;435.80;2355.20;;;;;;5093115;28;20078;-76
2021/08/27 09:22:50;;;;;;;13.35;9.00;;;435.70;2355.20;;;;;;5075040;28;20017;-75
2021/08/27 09:25:19;;;;;;;14.20;10.70;;;435.80;2355.20;;;;;;5091401;28;20031;-75
2021/08/27 09:28:03;;;;;;;14.35;9.65;;;435.70;2355.20;;;;;;5093049;28;20474;-75
2021/08/27 09:30:31;;;;;;;11.52;7.82;;;435.60;2355.20;;;;;;5074800;28;20158;-76
2021/08/27 09:33:07;;;;;;;13.38;9.02;;;435.70;2355.20;;;;;;5092912;28;20028;-75
2021/08/27 09:35:33;;;;;;;13.05;7.70;;;435.70;2355.20;;;;;;5090609;28;20024;-76
2021/08/27 09:37:58;;;;;;;15.10;8.77;;;435.80;2355.20;;;;;;5092755;28;20513;-75
2021/08/27 09:40:29;;;;;;;12.88;7.50;;;435.80;2355.20;;;;;;5092762;28;20024;-77
2021/08/27 09:42:56;;;;;;;12.27;7.93;;;435.90;2355.20;;;;;;5074761;28;20024;-78
2021/08/27 09:45:36;;;;;;;15.73;8.68;;;435.90;2355.20;;;;;;5108853;28;20015;-76
2021/08/27 09:48:09;;;;;;;15.30;8.55;;;435.90;2355.20;;;;;;5110284;28;20108;-76
2021/08/27 09:50:37;;;;;;;16.63;9.05;;;435.80;2355.20;;;;;;5079422;28;20539;-78
2021/08/27 09:53:06;;;;;;;15.07;8.88;;;435.90;2355.20;;;;;;5095202;28;20487;-78
2021/08/27 09:55:33;;;;;;;13.57;8.10;;;435.90;2355.20;;;;;;5096312;28;20378;-77
2021/08/27 09:58:10;;;;;;;14.70;8.30;;;435.90;2355.20;;;;;;5106802;28;20024;-76
2021/08/27 10:00:40;;;;;;;12.27;8.52;;;436.10;2355.20;;;;;;5076305;28;20032;-77
2021/08/27 10:03:21;;;;;;;13.43;9.05;;;460.80;2380.80;;;;;;5093906;28;20020;-77
2021/08/27 10:05:53;;;;;;;12.20;8.38;;;460.80;2380.80;;;;;;5091884;28;20437;-78
2021/08/27 10:08:21;;;;;;;11.73;8.27;;;460.90;2380.80;;;;;;5074809;28;20020;-75
2021/08/27 10:11:13;;;;;;;13.40;9.05;;;461.10;2380.80;;;;;;5108928;28;20029;-78
2021/08/27 10:13:40;;;;;;;15.48;9.60;;;461.10;2380.80;;;;;;5088744;28;20107;-76
2021/08/27 10:16:06;;;;;;;10.88;7.05;;;461.10;2380.80;;;;;;5077414;28;20434;-77
2021/08/27 10:18:33;;;;;;;11.27;7.70;;;461.10;2380.80;;;;;;5092255;28;20485;-77
2021/08/27 10:20:58;;;;;;;14.35;8.50;;;461.10;2380.80;;;;;;5074543;28;20107;-76
2021/08/27 10:23:24;;;;;;;13.93;8.82;;;461.20;2380.80;;;;;;5074365;28;20024;-78
2021/08/27 10:25:52;;;;;;;12.85;7.95;;;461.20;2380.80;;;;;;5092340;28;20028;-77
2021/08/27 10:28:18;;;;;;;13.95;9.25;;;461.20;2380.80;;;;;;5074473;28;20027;-78
2021/08/27 10:31:00;;;;;;;14.05;8.93;;;461.00;2380.80;;;;;;5074249;28;20080;-78
2021/08/27 10:33:46;;;;;;;13.52;8.70;;;461.00;2380.80;;;;;;5074603;28;20039;-78
2021/08/27 10:36:21;;;;;;;15.93;8.98;;;461.10;2380.80;;;;;;5089434;28;20085;-77
2021/08/27 10:38:50;;;;;;;14.40;7.97;;;460.90;2380.80;;;;;;5092248;28;20024;-76
2021/08/27 10:41:21;;;;;;;13.20;8.48;;;460.80;2380.80;;;;;;5074105;28;20025;-76
2021/08/27 10:44:01;;;;;;;15.70;8.07;;;460.90;2380.80;;;;;;5092242;28;20099;-81
2021/08/27 10:46:46;;;;;;;12.35;8.55;;;461.10;2380.80;;;;;;5092193;28;20017;-75
2021/08/27 10:49:23;;;;;;;12.35;8.27;;;460.80;2380.80;;;;;;5089764;28;20020;-76
2021/08/27 10:51:53;;;;;;;15.82;9.25;;;461.00;2380.80;;;;;;5091755;28;20066;-75
2021/08/27 10:54:19;;;;;;;12.15;7.82;;;461.10;2380.80;;;;;;5091780;28;20008;-78
2021/08/27 10:56:50;;;;;;;13.55;9.48;;;461.00;2380.80;;;;;;5091772;28;20578;-75
2021/08/27 10:59:36;;;;;;;10.68;8.63;;;460.80;2380.80;;;;;;5092145;28;20093;-76
2021/08/27 11:02:04;;;;;;;13.52;8.70;;;460.90;2380.80;;;;;;5090949;28;20461;-75
2021/08/27 11:04:39;;;;;;;12.95;9.50;;;461.10;2380.80;;;;;;5073463;28;20058;-78
2021/08/27 11:07:26;;;;;;;15.27;9.88;;;461.10;2380.80;;;;;;5073942;28;20381;-79
2021/08/27 11:10:00;;;;;;;;;;;461.20;2380.80;;;;;;5091324;28;20423;-75
2021/08/27 11:12:32;;;;;;;13.70;9.00;;;461.40;2380.80;;;;;;5096951;28;19938;-78
2021/08/27 11:15:23;;;;;;;12.63;10.18;;;461.40;2380.80;;;;;;5094122;28;20039;-77
2021/08/27 11:18:22;;;;;;;18.42;9.27;;;461.50;2380.80;;;;;;5098726;28;20019;-75
2021/08/27 11:20:49;;;;;;;13.57;9.98;;;461.50;2380.80;;;;;;5101288;28;20047;-76
2021/08/27 11:23:16;;;;;;;16.05;10.43;;;461.40;2380.80;;;;;;5103494;28;20024;-75
2021/08/27 11:25:59;;;;;;;15.80;11.25;;;461.40;2380.80;;;;;;5095175;28;20086;-75
2021/08/27 11:28:27;;;;;;;16.35;10.32;;;461.40;2380.80;;;;;;5094975;28;20020;-76
2021/08/27 11:31:22;;;;;;;14.70;10.48;;;461.30;2380.80;;;;;;5093023;28;20369;-77
2021/08/27 11:33:50;;;;;;;14.60;9.13;;;461.40;2380.80;;;;;;5012674;28;20038;-75
2021/08/27 11:36:18;;;;;;;11.38;8.80;;;461.50;2380.80;;;;;;5013025;28;20026;-77
2021/08/27 11:38:51;;;;;;;11.25;7.97;;;461.40;2380.80;;;;;;5013139;28;20095;-77
2021/08/27 11:41:17;;;;;;;12.93;7.70;;;461.50;2380.80;;;;;;5012963;28;20503;-75
2021/08/27 11:43:50;;;;;;;11.07;7.70;;;461.60;2380.80;;;;;;5021837;28;20068;-75
2021/08/27 11:46:19;;;;;;;10.43;7.20;;;461.70;2380.80;;;;;;5027109;28;20029;-77
2021/08/27 11:48:51;;;;;;;11.38;7.25;;;461.70;2380.80;;;;;;5025069;28;20029;-77
2021/08/27 11:51:23;;;;;;;12.88;7.35;;;461.70;2380.80;;;;;;5025823;28;20171;-76
2021/08/27 11:53:48;;;;;;;10.38;7.70;;;486.40;2380.80;;;;;;5025924;28;20492;-77
2021/08/27 11:56:22;;;;;;;11.75;7.75;;;486.40;2380.80;;;;;;5013196;28;20056;-78
2021/08/27 11:58:48;;;;;;;12.00;7.60;;;461.70;2380.80;;;;;;5024800;28;20478;-77
2021/08/27 12:01:34;;;;;;;10.95;6.88;;;461.70;2380.80;;;;;;5019435;28;20057;-75
2021/08/27 12:04:00;;;;;;;;;;;461.70;2380.80;;;;;;5033929;28;20048;-76
2021/08/27 12:06:27;;;;;;;10.20;6.47;;;461.70;2380.80;;;;;;5032330;28;19909;-76
2021/08/27 12:08:52;;;;;;;13.77;7.78;;;461.70;2380.80;;;;;;5012700;28;20057;-75
2021/08/27 12:11:29;;;;;;;11.90;8.52;;;486.40;2380.80;;;;;;5092393;28;20040;-77